Time,TemperatureF,DewpointF,PressureIn,WindDirection,WindDirectionDegrees,WindSpeedMPH,WindSpeedGustMPH,Humidity,HourlyPrecipIn,Conditions,Clouds,dailyrainin,SoftwareType,DateUTC
2013-08-04 00:02:00,52.0,44.0,30.39,NNW,343,1.0,3.0,74,0.00,,,0.03,,2013-08-04 06:02:00,
2013-08-04 00:12:00,52.0,44.0,30.39,NNW,341,3.0,5.0,73,0.00,,,0.03,,2013-08-04 06:12:00,
2013-08-04 00:22:00,52.0,44.0,30.39,NNW,341,3.0,5.0,73,0.00,,,0.03,,2013-08-04 06:22:00,
2013-08-04 00:32:00,51.0,43.0,30.40,NNW,346,5.0,8.0,74,0.00,,,0.03,,2013-08-04 06:32:00,
2013-08-04 00:43:00,51.0,42.0,30.39,NNW,341,3.0,6.0,72,0.00,,,0.02,,2013-08-04 06:43:00,
2013-08-04 00:52:00,51.0,43.0,30.39,North,350,3.0,7.0,73,0.00,,,0.02,,2013-08-04 06:52:00,
2013-08-04 01:02:00,51.0,43.0,30.39,NNW,340,5.0,8.0,73,0.00,,,0.02,,2013-08-04 07:02:00,
2013-08-04 01:12:00,51.0,43.0,30.39,NW,318,2.0,6.0,74,0.00,,,0.02,,2013-08-04 07:12:00,
2013-08-04 01:22:00,51.0,43.0,30.39,NW,321,2.0,6.0,74,0.00,,,0.02,,2013-08-04 07:22:00,
2013-08-04 01:32:00,51.0,43.0,30.39,NNW,347,2.0,7.0,73,0.00,,,0.01,,2013-08-04 07:32:00,
2013-08-04 01:42:00,51.0,42.0,30.39,NNW,345,3.0,5.0,71,0.00,,,0.01,,2013-08-04 07:42:00,
2013-08-04 01:52:00,51.0,42.0,30.39,NNW,338,3.0,8.0,72,0.00,,,0.01,,2013-08-04 07:52:00,
2013-08-04 02:02:00,51.0,42.0,30.39,NNW,346,5.0,8.0,71,0.00,,,0.00,,2013-08-04 08:02:00,
2013-08-04 02:12:00,51.0,42.0,30.38,NNW,339,7.0,8.0,70,0.00,,,0.00,,2013-08-04 08:12:00,
2013-08-04 02:22:00,51.0,42.0,30.38,North,353,3.0,8.0,70,0.00,,,0.00,,2013-08-04 08:22:00,
2013-08-04 02:32:00,51.0,42.0,30.38,NNW,340,6.0,7.0,70,0.00,,,0.00,,2013-08-04 08:32:00,
2013-08-04 02:43:00,51.0,41.0,30.38,North,353,6.0,9.0,68,0.00,,,0.00,,2013-08-04 08:43:00,
2013-08-04 02:53:00,51.0,41.0,30.38,North,351,2.0,5.0,69,0.00,,,0.00,,2013-08-04 08:53:00,
2013-08-04 03:02:00,51.0,42.0,30.38,NNW,348,5.0,8.0,70,0.00,,,0.00,,2013-08-04 09:02:00,
2013-08-04 03:12:00,51.0,41.0,30.38,NNW,347,3.0,8.0,69,0.00,,,0.00,,2013-08-04 09:12:00,
2013-08-04 03:22:00,50.0,40.0,30.38,NNW,343,5.0,6.0,69,0.00,,,0.00,,2013-08-04 09:22:00,
2013-08-04 03:32:00,50.0,40.0,30.38,NNW,347,5.0,9.0,68,0.00,,,0.00,,2013-08-04 09:32:00,
2013-08-04 03:43:00,51.0,41.0,30.38,NNW,335,6.0,8.0,69,0.00,,,0.00,,2013-08-04 09:43:00,
2013-08-04 03:52:00,50.0,40.0,30.38,NNW,335,5.0,7.0,69,0.00,,,0.00,,2013-08-04 09:52:00,
2013-08-04 04:02:00,50.0,40.0,30.38,NNW,339,3.0,6.0,69,0.00,,,0.00,,2013-08-04 10:02:00,
2013-08-04 04:12:00,50.0,39.0,30.38,North,352,3.0,5.0,67,0.00,,,0.00,,2013-08-04 10:12:00,
2013-08-04 04:22:00,50.0,39.0,30.38,North,351,5.0,7.0,67,0.00,,,0.00,,2013-08-04 10:22:00,
2013-08-04 04:32:00,50.0,40.0,30.38,NNW,338,6.0,10.0,68,0.00,,,0.00,,2013-08-04 10:32:00,
2013-08-04 04:42:00,50.0,40.0,30.37,NNW,344,7.0,9.0,68,0.00,,,0.00,,2013-08-04 10:42:00,
2013-08-04 04:52:00,50.0,40.0,30.38,NNW,347,6.0,9.0,69,0.00,,,0.00,,2013-08-04 10:52:00,
2013-08-04 05:02:00,49.0,39.0,30.38,NNW,334,3.0,6.0,69,0.00,,,0.00,,2013-08-04 11:02:00,
2013-08-04 05:12:00,50.0,40.0,30.38,North,352,5.0,9.0,68,0.00,,,0.00,,2013-08-04 11:12:00,
2013-08-04 05:22:00,50.0,39.0,30.38,NNW,339,5.0,8.0,67,0.00,,,0.00,,2013-08-04 11:22:00,
2013-08-04 05:32:00,50.0,39.0,30.38,NNW,340,5.0,7.0,67,0.00,,,0.00,,2013-08-04 11:32:00,
2013-08-04 05:42:00,50.0,39.0,30.38,North,350,3.0,7.0,67,0.00,,,0.00,,2013-08-04 11:42:00,
2013-08-04 05:53:00,50.0,39.0,30.38,NNW,337,5.0,6.0,67,0.00,,,0.00,,2013-08-04 11:53:00,
2013-08-04 06:02:00,50.0,39.0,30.38,NNW,345,5.0,9.0,67,0.00,,,0.00,,2013-08-04 12:02:00,
2013-08-04 06:12:00,50.0,39.0,30.38,NNW,345,6.0,8.0,66,0.00,,,0.00,,2013-08-04 12:12:00,
2013-08-04 06:22:00,50.0,39.0,30.38,NNW,344,6.0,10.0,66,0.00,,,0.00,,2013-08-04 12:22:00,
2013-08-04 06:32:00,50.0,40.0,30.39,NNW,343,3.0,8.0,68,0.00,,,0.00,,2013-08-04 12:32:00,
2013-08-04 06:42:00,50.0,39.0,30.39,North,350,7.0,10.0,67,0.00,,,0.00,,2013-08-04 12:42:00,
2013-08-04 06:53:00,50.0,39.0,30.39,North,352,6.0,9.0,67,0.00,,,0.00,,2013-08-04 12:53:00,
2013-08-04 07:02:00,50.0,39.0,30.39,North,354,3.0,7.0,67,0.00,,,0.00,,2013-08-04 13:02:00,
2013-08-04 07:12:00,52.0,40.0,30.40,North,355,0.0,0.0,63,0.00,,,0.00,,2013-08-04 13:12:00,
2013-08-04 07:22:00,52.0,39.0,30.40,North,6,2.0,3.0,62,0.00,,,0.00,,2013-08-04 13:22:00,
2013-08-04 07:32:00,53.0,39.0,30.39,NNW,335,5.0,8.0,59,0.00,,,0.00,,2013-08-04 13:32:00,
2013-08-04 07:42:00,55.0,40.0,30.40,North,349,1.0,6.0,57,0.00,,,0.00,,2013-08-04 13:42:00,
2013-08-04 07:52:00,55.0,40.0,30.40,NNW,340,0.0,0.0,57,0.00,,,0.00,,2013-08-04 13:52:00,
2013-08-04 08:32:00,60.0,42.0,30.40,NNW,341,3.0,6.0,51,0.00,,,0.00,,2013-08-04 14:32:00,
2013-08-04 08:43:00,61.0,42.0,30.40,NNE,30,0.0,0.0,50,0.00,,,0.00,,2013-08-04 14:43:00,
2013-08-04 09:32:00,67.0,44.0,30.40,NNW,327,0.0,0.0,44,0.00,,,0.00,,2013-08-04 15:32:00,
2013-08-04 09:42:00,71.0,47.0,30.40,ENE,74,0.0,0.0,43,0.00,,,0.00,,2013-08-04 15:42:00,
2013-08-04 12:33:00,76.0,46.0,30.39,SSE,160,0.0,0.0,35,0.00,,,0.00,,2013-08-04 18:33:00,
2013-08-04 12:43:00,76.0,46.0,30.40,SSE,160,0.0,3.0,35,0.00,,,0.00,,2013-08-04 18:43:00,
2013-08-04 13:02:00,75.0,45.0,30.40,SE,134,0.0,2.0,35,0.00,,,0.00,,2013-08-04 19:02:00,
2013-08-04 13:12:00,72.0,44.0,30.40,NE,34,2.0,3.0,37,0.00,,,0.00,,2013-08-04 19:12:00,
2013-08-04 13:22:00,72.0,44.0,30.40,NE,34,2.0,3.0,37,0.00,,,0.00,,2013-08-04 19:22:00,
2013-08-04 13:33:00,68.0,45.0,30.40,NNW,347,0.0,3.0,43,0.00,,,0.00,,2013-08-04 19:33:00,
2013-08-04 13:43:00,65.0,49.0,30.40,West,278,8.0,15.0,57,0.00,,,0.00,,2013-08-04 19:43:00,
2013-08-04 13:53:00,64.0,47.0,30.40,WNW,288,5.0,8.0,55,0.00,,,0.00,,2013-08-04 19:53:00,
2013-08-04 14:02:00,64.0,45.0,30.41,NNE,16,2.0,9.0,51,0.00,,,0.00,,2013-08-04 20:02:00,
2013-08-04 14:12:00,63.0,43.0,30.40,NNE,27,2.0,6.0,48,0.00,,,0.00,,2013-08-04 20:12:00,
2013-08-04 14:22:00,63.0,44.0,30.40,NW,304,3.0,12.0,49,0.00,,,0.00,,2013-08-04 20:22:00,
2013-08-04 14:33:00,64.0,43.0,30.40,NNE,27,1.0,8.0,47,0.00,,,0.00,,2013-08-04 20:33:00,
2013-08-04 14:42:00,69.0,46.0,30.40,ENE,67,3.0,10.0,43,0.00,,,0.00,,2013-08-04 20:42:00,
2013-08-04 14:53:00,68.0,45.0,30.40,North,6,5.0,13.0,43,0.00,,,0.00,,2013-08-04 20:53:00,
2013-08-04 15:02:00,66.0,45.0,30.39,NNE,20,6.0,12.0,46,0.00,,,0.00,,2013-08-04 21:02:00,
2013-08-04 15:12:00,68.0,45.0,30.39,North,4,2.0,3.0,44,0.00,,,0.00,,2013-08-04 21:12:00,
2013-08-04 15:22:00,69.0,46.0,30.38,NNE,22,0.0,3.0,44,0.00,,,0.00,,2013-08-04 21:22:00,
2013-08-04 15:32:00,71.0,45.0,30.38,NNE,17,1.0,0.0,39,0.00,,,0.00,,2013-08-04 21:32:00,
2013-08-04 15:43:00,70.0,43.0,30.38,North,11,3.0,10.0,38,0.00,,,0.00,,2013-08-04 21:43:00,
2013-08-04 15:53:00,71.0,43.0,30.37,NNE,13,2.0,8.0,37,0.00,,,0.00,,2013-08-04 21:53:00,
2013-08-04 16:01:00,74.0,43.0,30.37,NE,48,3.0,5.0,33,0.00,,,0.00,,2013-08-04 22:01:00,
2013-08-04 16:43:00,75.0,44.0,30.36,North,0,1.0,5.0,33,0.00,,,0.00,,2013-08-04 22:43:00,
2013-08-04 19:12:00,76.0,45.0,30.34,North,7,2.0,5.0,33,0.00,,,0.00,,2013-08-05 01:12:00,
2013-08-04 19:22:00,73.0,44.0,30.34,North,355,2.0,6.0,36,0.00,,,0.00,,2013-08-05 01:22:00,
2013-08-04 19:33:00,71.0,45.0,30.34,WNW,299,6.0,12.0,39,0.00,,,0.00,,2013-08-05 01:33:00,
2013-08-04 19:42:00,69.0,44.0,30.34,WNW,301,2.0,8.0,40,0.00,,,0.00,,2013-08-05 01:42:00,
2013-08-04 19:52:00,69.0,44.0,30.35,WNW,285,1.0,10.0,41,0.00,,,0.00,,2013-08-05 01:52:00,
2013-08-04 20:02:00,69.0,46.0,30.36,ENE,57,1.0,3.0,43,0.00,,,0.00,,2013-08-05 02:02:00,
2013-08-04 20:12:00,66.0,47.0,30.37,WSW,240,8.0,12.0,50,0.00,,,0.00,,2013-08-05 02:12:00,
2013-08-04 20:22:00,65.0,46.0,30.38,WSW,241,7.0,12.0,51,0.00,,,0.00,,2013-08-05 02:22:00,
2013-08-04 20:33:00,64.0,47.0,30.37,West,261,3.0,5.0,55,0.00,,,0.00,,2013-08-05 02:33:00,
2013-08-04 20:43:00,62.0,47.0,30.37,WNW,298,2.0,3.0,59,0.00,,,0.00,,2013-08-05 02:43:00,
2013-08-04 20:53:00,61.0,47.0,30.37,WNW,298,2.0,3.0,60,0.00,,,0.00,,2013-08-05 02:53:00,
2013-08-04 21:02:00,60.0,46.0,30.37,WNW,298,0.0,0.0,60,0.00,,,0.00,,2013-08-05 03:02:00,
2013-08-04 21:12:00,60.0,46.0,30.37,WNW,298,0.0,0.0,60,0.00,,,0.00,,2013-08-05 03:12:00,
2013-08-04 21:22:00,59.0,46.0,30.37,North,0,0.0,0.0,61,0.00,,,0.00,,2013-08-05 03:22:00,
2013-08-04 21:32:00,59.0,46.0,30.37,North,10,3.0,3.0,62,0.00,,,0.00,,2013-08-05 03:32:00,
2013-08-04 21:52:00,58.0,45.0,30.38,North,358,3.0,5.0,63,0.00,,,0.00,,2013-08-05 03:52:00,
2013-08-04 22:02:00,58.0,46.0,30.38,North,4,1.0,3.0,64,0.00,,,0.00,,2013-08-05 04:02:00,
2013-08-04 22:12:00,57.0,45.0,30.38,North,3,3.0,5.0,65,0.00,,,0.00,,2013-08-05 04:12:00,
2013-08-04 22:22:00,57.0,46.0,30.39,North,352,2.0,3.0,66,0.00,,,0.00,,2013-08-05 04:22:00,
2013-08-04 22:32:00,57.0,46.0,30.39,North,352,2.0,3.0,66,0.00,,,0.00,,2013-08-05 04:32:00,
2013-08-04 22:43:00,57.0,45.0,30.39,NNW,333,5.0,6.0,65,0.00,,,0.00,,2013-08-05 04:43:00,
2013-08-04 22:52:00,57.0,46.0,30.39,NNW,348,3.0,5.0,66,0.00,,,0.00,,2013-08-05 04:52:00,
2013-08-04 23:02:00,57.0,45.0,30.40,NNW,340,0.0,0.0,65,0.00,,,0.00,,2013-08-05 05:02:00,
2013-08-04 23:12:00,57.0,47.0,30.42,SSE,152,3.0,12.0,69,0.00,,,0.00,,2013-08-05 05:12:00,
2013-08-04 23:22:00,57.0,48.0,30.41,SSE,153,6.0,12.0,71,0.00,,,0.00,,2013-08-05 05:22:00,
2013-08-04 23:32:00,56.0,47.0,30.41,South,170,2.0,2.0,73,0.00,,,0.00,,2013-08-05 05:32:00,
2013-08-04 23:42:00,56.0,49.0,30.41,West,273,1.0,3.0,76,0.00,,,0.00,,2013-08-05 05:42:00,
2013-08-04 23:53:00,56.0,49.0,30.42,West,273,0.0,1.0,76,0.00,,,0.00,,2013-08-05 05:53:00,